sensor_id;sensor_type;location;lat;lon;timestamp;P1;durP1;ratioP1;P2;durP2;ratioP2
74974;SDS011;68459;50.836;19.138;2023-06-19T00:02:36;10.25;;;7.90;;
74974;SDS011;68459;50.836;19.138;2023-06-19T00:05:40;12.38;;;8.50;;
74974;SDS011;68459;50.836;19.138;2023-06-19T00:08:43;11.97;;;8.67;;
74974;SDS011;68459;50.836;19.138;2023-06-19T00:11:47;12.05;;;9.05;;
74974;SDS011;68459;50.836;19.138;2023-06-19T00:14:51;14.02;;;8.88;;
74974;SDS011;68459;50.836;19.138;2023-06-19T00:17:56;13.67;;;8.43;;
74974;SDS011;68459;50.836;19.138;2023-06-19T00:21:00;13.30;;;9.50;;
74974;SDS011;68459;50.836;19.138;2023-06-19T00:24:07;14.88;;;8.95;;
74974;SDS011;68459;50.836;19.138;2023-06-19T00:27:12;12.95;;;8.75;;
74974;SDS011;68459;50.836;19.138;2023-06-19T00:30:17;14.35;;;8.93;;
74974;SDS011;68459;50.836;19.138;2023-06-19T00:33:22;15.35;;;9.63;;
74974;SDS011;68459;50.836;19.138;2023-06-19T00:36:27;13.52;;;9.45;;
74974;SDS011;68459;50.836;19.138;2023-06-19T00:39:31;13.00;;;8.57;;
74974;SDS011;68459;50.836;19.138;2023-06-19T00:42:35;14.20;;;8.98;;
74974;SDS011;68459;50.836;19.138;2023-06-19T00:45:38;11.15;;;8.15;;
74974;SDS011;68459;50.836;19.138;2023-06-19T00:48:44;12.10;;;8.47;;
74974;SDS011;68459;50.836;19.138;2023-06-19T00:51:48;13.00;;;8.18;;
74974;SDS011;68459;50.836;19.138;2023-06-19T00:54:52;13.23;;;8.93;;
74974;SDS011;68459;50.836;19.138;2023-06-19T00:57:56;12.38;;;8.02;;
74974;SDS011;68459;50.836;19.138;2023-06-19T01:01:01;12.73;;;8.07;;
74974;SDS011;68459;50.836;19.138;2023-06-19T01:04:12;13.27;;;8.38;;
74974;SDS011;68459;50.836;19.138;2023-06-19T01:07:19;13.82;;;8.90;;
74974;SDS011;68459;50.836;19.138;2023-06-19T01:10:34;11.53;;;8.63;;
74974;SDS011;68459;50.836;19.138;2023-06-19T01:13:44;13.20;;;8.82;;
74974;SDS011;68459;50.836;19.138;2023-06-19T01:16:55;13.88;;;8.77;;
74974;SDS011;68459;50.836;19.138;2023-06-19T01:20:01;12.83;;;8.80;;
74974;SDS011;68459;50.836;19.138;2023-06-19T01:23:14;11.80;;;8.38;;
74974;SDS011;68459;50.836;19.138;2023-06-19T01:26:19;12.70;;;8.38;;
74974;SDS011;68459;50.836;19.138;2023-06-19T01:29:28;12.38;;;8.70;;
74974;SDS011;68459;50.836;19.138;2023-06-19T01:32:34;13.32;;;8.70;;
74974;SDS011;68459;50.836;19.138;2023-06-19T01:35:44;13.80;;;8.85;;
74974;SDS011;68459;50.836;19.138;2023-06-19T01:38:52;12.48;;;8.73;;
74974;SDS011;68459;50.836;19.138;2023-06-19T01:41:59;12.17;;;8.00;;
74974;SDS011;68459;50.836;19.138;2023-06-19T01:45:05;13.70;;;8.90;;
74974;SDS011;68459;50.836;19.138;2023-06-19T01:48:10;12.27;;;8.85;;
74974;SDS011;68459;50.836;19.138;2023-06-19T01:51:14;13.93;;;9.00;;
74974;SDS011;68459;50.836;19.138;2023-06-19T01:54:20;11.90;;;8.55;;
74974;SDS011;68459;50.836;19.138;2023-06-19T01:57:24;14.52;;;9.35;;
74974;SDS011;68459;50.836;19.138;2023-06-19T02:00:28;12.50;;;9.07;;
74974;SDS011;68459;50.836;19.138;2023-06-19T02:03:37;15.02;;;9.02;;
74974;SDS011;68459;50.836;19.138;2023-06-19T02:06:41;15.07;;;9.20;;
74974;SDS011;68459;50.836;19.138;2023-06-19T02:09:46;15.60;;;9.02;;
74974;SDS011;68459;50.836;19.138;2023-06-19T02:12:51;13.37;;;9.53;;
74974;SDS011;68459;50.836;19.138;2023-06-19T02:15:55;13.90;;;9.07;;
74974;SDS011;68459;50.836;19.138;2023-06-19T02:19:02;13.25;;;9.02;;
74974;SDS011;68459;50.836;19.138;2023-06-19T02:22:06;13.53;;;8.93;;
74974;SDS011;68459;50.836;19.138;2023-06-19T02:25:11;12.73;;;8.88;;
74974;SDS011;68459;50.836;19.138;2023-06-19T02:28:17;15.30;;;8.55;;
74974;SDS011;68459;50.836;19.138;2023-06-19T02:31:22;12.15;;;9.38;;
74974;SDS011;68459;50.836;19.138;2023-06-19T02:34:26;13.07;;;8.98;;
74974;SDS011;68459;50.836;19.138;2023-06-19T02:37:30;11.75;;;8.52;;
74974;SDS011;68459;50.836;19.138;2023-06-19T02:40:35;16.10;;;9.30;;
74974;SDS011;68459;50.836;19.138;2023-06-19T02:43:39;12.67;;;8.53;;
74974;SDS011;68459;50.836;19.138;2023-06-19T02:46:44;14.43;;;8.35;;
74974;SDS011;68459;50.836;19.138;2023-06-19T02:49:48;12.02;;;8.20;;
74974;SDS011;68459;50.836;19.138;2023-06-19T02:52:52;14.03;;;8.93;;
74974;SDS011;68459;50.836;19.138;2023-06-19T02:55:57;15.48;;;8.85;;
74974;SDS011;68459;50.836;19.138;2023-06-19T02:59:01;12.43;;;8.27;;
74974;SDS011;68459;50.836;19.138;2023-06-19T03:02:04;16.33;;;8.98;;
74974;SDS011;68459;50.836;19.138;2023-06-19T03:05:09;10.07;;;7.80;;
74974;SDS011;68459;50.836;19.138;2023-06-19T03:08:12;10.75;;;8.35;;
74974;SDS011;68459;50.836;19.138;2023-06-19T03:11:18;16.10;;;9.13;;
74974;SDS011;68459;50.836;19.138;2023-06-19T03:14:21;11.97;;;8.33;;
74974;SDS011;68459;50.836;19.138;2023-06-19T03:17:26;11.32;;;7.90;;
74974;SDS011;68459;50.836;19.138;2023-06-19T03:20:29;13.07;;;8.73;;
74974;SDS011;68459;50.836;19.138;2023-06-19T03:23:35;9.97;;;8.40;;
74974;SDS011;68459;50.836;19.138;2023-06-19T03:26:40;12.65;;;8.60;;
74974;SDS011;68459;50.836;19.138;2023-06-19T03:29:44;12.32;;;8.52;;
74974;SDS011;68459;50.836;19.138;2023-06-19T03:32:54;13.93;;;8.95;;
74974;SDS011;68459;50.836;19.138;2023-06-19T03:36:12;13.85;;;8.70;;
74974;SDS011;68459;50.836;19.138;2023-06-19T03:39:23;14.05;;;8.45;;
74974;SDS011;68459;50.836;19.138;2023-06-19T03:42:34;12.48;;;8.50;;
74974;SDS011;68459;50.836;19.138;2023-06-19T03:45:38;14.53;;;9.57;;
74974;SDS011;68459;50.836;19.138;2023-06-19T03:48:42;17.02;;;9.40;;
74974;SDS011;68459;50.836;19.138;2023-06-19T03:51:46;12.10;;;8.85;;
74974;SDS011;68459;50.836;19.138;2023-06-19T03:54:50;14.53;;;8.77;;
74974;SDS011;68459;50.836;19.138;2023-06-19T03:57:55;12.85;;;8.95;;
74974;SDS011;68459;50.836;19.138;2023-06-19T04:00:59;15.25;;;9.35;;
74974;SDS011;68459;50.836;19.138;2023-06-19T04:04:03;12.77;;;9.45;;
74974;SDS011;68459;50.836;19.138;2023-06-19T04:07:07;12.77;;;8.93;;
74974;SDS011;68459;50.836;19.138;2023-06-19T04:10:15;12.82;;;8.65;;
74974;SDS011;68459;50.836;19.138;2023-06-19T04:13:20;12.23;;;8.85;;
74974;SDS011;68459;50.836;19.138;2023-06-19T04:16:25;14.37;;;9.53;;
74974;SDS011;68459;50.836;19.138;2023-06-19T04:19:29;16.52;;;9.63;;
74974;SDS011;68459;50.836;19.138;2023-06-19T04:22:33;12.27;;;9.00;;
74974;SDS011;68459;50.836;19.138;2023-06-19T04:25:37;15.33;;;9.57;;
74974;SDS011;68459;50.836;19.138;2023-06-19T04:28:42;12.57;;;9.30;;
74974;SDS011;68459;50.836;19.138;2023-06-19T04:31:46;15.38;;;9.35;;
74974;SDS011;68459;50.836;19.138;2023-06-19T04:34:50;15.48;;;9.18;;
74974;SDS011;68459;50.836;19.138;2023-06-19T04:37:54;15.32;;;9.57;;
74974;SDS011;68459;50.836;19.138;2023-06-19T04:40:57;15.48;;;9.77;;
74974;SDS011;68459;50.836;19.138;2023-06-19T04:44:03;17.27;;;10.02;;
74974;SDS011;68459;50.836;19.138;2023-06-19T04:47:07;14.70;;;8.80;;
74974;SDS011;68459;50.836;19.138;2023-06-19T04:50:12;13.13;;;10.30;;
74974;SDS011;68459;50.836;19.138;2023-06-19T04:53:16;19.05;;;9.73;;
74974;SDS011;68459;50.836;19.138;2023-06-19T04:56:20;12.57;;;9.47;;
74974;SDS011;68459;50.836;19.138;2023-06-19T04:59:25;14.68;;;8.80;;
74974;SDS011;68459;50.836;19.138;2023-06-19T05:02:32;13.80;;;9.52;;
74974;SDS011;68459;50.836;19.138;2023-06-19T05:05:36;15.45;;;9.25;;
74974;SDS011;68459;50.836;19.138;2023-06-19T05:08:40;15.18;;;9.43;;
74974;SDS011;68459;50.836;19.138;2023-06-19T05:11:44;18.05;;;10.05;;
74974;SDS011;68459;50.836;19.138;2023-06-19T05:14:49;16.20;;;9.73;;
74974;SDS011;68459;50.836;19.138;2023-06-19T05:17:53;17.30;;;9.90;;
74974;SDS011;68459;50.836;19.138;2023-06-19T05:20:58;15.82;;;9.57;;
74974;SDS011;68459;50.836;19.138;2023-06-19T05:24:01;13.88;;;9.00;;
74974;SDS011;68459;50.836;19.138;2023-06-19T05:27:06;13.80;;;9.13;;
74974;SDS011;68459;50.836;19.138;2023-06-19T05:30:11;16.27;;;9.55;;
74974;SDS011;68459;50.836;19.138;2023-06-19T05:33:16;14.05;;;8.95;;
74974;SDS011;68459;50.836;19.138;2023-06-19T05:36:20;13.52;;;8.35;;
74974;SDS011;68459;50.836;19.138;2023-06-19T05:39:24;15.40;;;8.60;;
74974;SDS011;68459;50.836;19.138;2023-06-19T05:42:27;13.93;;;8.95;;
74974;SDS011;68459;50.836;19.138;2023-06-19T05:45:33;13.65;;;8.90;;
74974;SDS011;68459;50.836;19.138;2023-06-19T05:48:37;14.47;;;8.93;;
74974;SDS011;68459;50.836;19.138;2023-06-19T05:51:42;14.27;;;8.23;;
74974;SDS011;68459;50.836;19.138;2023-06-19T05:54:45;13.18;;;8.43;;
74974;SDS011;68459;50.836;19.138;2023-06-19T05:57:50;14.45;;;8.38;;
74974;SDS011;68459;50.836;19.138;2023-06-19T06:00:55;13.60;;;8.47;;
74974;SDS011;68459;50.836;19.138;2023-06-19T06:04:00;12.52;;;7.82;;
74974;SDS011;68459;50.836;19.138;2023-06-19T06:07:05;15.07;;;8.90;;
74974;SDS011;68459;50.836;19.138;2023-06-19T06:10:10;15.65;;;9.35;;
74974;SDS011;68459;50.836;19.138;2023-06-19T06:13:14;10.52;;;7.10;;
74974;SDS011;68459;50.836;19.138;2023-06-19T06:16:19;10.63;;;7.20;;
74974;SDS011;68459;50.836;19.138;2023-06-19T06:19:23;11.93;;;6.70;;
74974;SDS011;68459;50.836;19.138;2023-06-19T06:22:27;9.30;;;5.50;;
74974;SDS011;68459;50.836;19.138;2023-06-19T06:25:30;13.95;;;6.38;;
74974;SDS011;68459;50.836;19.138;2023-06-19T06:28:34;7.55;;;5.70;;
74974;SDS011;68459;50.836;19.138;2023-06-19T06:31:39;9.65;;;6.10;;
74974;SDS011;68459;50.836;19.138;2023-06-19T06:34:44;8.67;;;5.23;;
74974;SDS011;68459;50.836;19.138;2023-06-19T06:37:47;5.82;;;4.63;;
74974;SDS011;68459;50.836;19.138;2023-06-19T06:40:52;7.93;;;5.25;;
74974;SDS011;68459;50.836;19.138;2023-06-19T06:43:55;6.13;;;4.07;;
74974;SDS011;68459;50.836;19.138;2023-06-19T06:47:01;5.93;;;4.10;;
74974;SDS011;68459;50.836;19.138;2023-06-19T06:50:05;8.02;;;4.60;;
74974;SDS011;68459;50.836;19.138;2023-06-19T06:53:10;5.95;;;4.47;;
74974;SDS011;68459;50.836;19.138;2023-06-19T06:56:13;9.25;;;4.55;;
74974;SDS011;68459;50.836;19.138;2023-06-19T06:59:18;5.03;;;3.97;;
74974;SDS011;68459;50.836;19.138;2023-06-19T07:02:23;6.18;;;4.55;;
74974;SDS011;68459;50.836;19.138;2023-06-19T07:05:28;7.40;;;4.68;;
74974;SDS011;68459;50.836;19.138;2023-06-19T07:08:32;6.75;;;4.70;;
74974;SDS011;68459;50.836;19.138;2023-06-19T07:11:35;6.80;;;5.10;;
74974;SDS011;68459;50.836;19.138;2023-06-19T07:14:39;6.75;;;4.70;;
74974;SDS011;68459;50.836;19.138;2023-06-19T07:17:44;6.88;;;4.82;;
74974;SDS011;68459;50.836;19.138;2023-06-19T07:20:48;8.38;;;4.82;;
74974;SDS011;68459;50.836;19.138;2023-06-19T07:23:52;6.60;;;5.10;;
74974;SDS011;68459;50.836;19.138;2023-06-19T07:26:56;7.40;;;4.25;;
74974;SDS011;68459;50.836;19.138;2023-06-19T07:30:00;6.80;;;4.60;;
74974;SDS011;68459;50.836;19.138;2023-06-19T07:33:05;8.70;;;4.47;;
74974;SDS011;68459;50.836;19.138;2023-06-19T07:36:09;8.65;;;6.13;;
74974;SDS011;68459;50.836;19.138;2023-06-19T07:39:15;19.05;;;11.88;;
74974;SDS011;68459;50.836;19.138;2023-06-19T07:42:19;7.50;;;5.88;;
74974;SDS011;68459;50.836;19.138;2023-06-19T07:45:23;7.25;;;4.93;;
74974;SDS011;68459;50.836;19.138;2023-06-19T07:48:29;7.65;;;4.85;;
74974;SDS011;68459;50.836;19.138;2023-06-19T07:51:32;6.13;;;4.13;;
74974;SDS011;68459;50.836;19.138;2023-06-19T07:54:47;5.78;;;4.22;;
74974;SDS011;68459;50.836;19.138;2023-06-19T07:57:54;11.75;;;4.97;;
74974;SDS011;68459;50.836;19.138;2023-06-19T08:00:58;5.78;;;4.00;;
74974;SDS011;68459;50.836;19.138;2023-06-19T08:04:04;5.22;;;3.65;;
74974;SDS011;68459;50.836;19.138;2023-06-19T08:07:08;5.20;;;3.80;;
74974;SDS011;68459;50.836;19.138;2023-06-19T08:10:11;6.55;;;4.47;;
74974;SDS011;68459;50.836;19.138;2023-06-19T08:13:16;5.22;;;3.97;;
74974;SDS011;68459;50.836;19.138;2023-06-19T08:16:19;7.32;;;4.25;;
74974;SDS011;68459;50.836;19.138;2023-06-19T08:19:25;7.07;;;4.78;;
74974;SDS011;68459;50.836;19.138;2023-06-19T08:22:28;4.82;;;3.50;;
74974;SDS011;68459;50.836;19.138;2023-06-19T08:25:32;8.27;;;3.80;;
74974;SDS011;68459;50.836;19.138;2023-06-19T08:28:37;4.75;;;3.60;;
74974;SDS011;68459;50.836;19.138;2023-06-19T08:31:42;7.82;;;4.00;;
74974;SDS011;68459;50.836;19.138;2023-06-19T08:34:47;5.37;;;3.93;;
74974;SDS011;68459;50.836;19.138;2023-06-19T08:37:51;6.38;;;4.30;;
74974;SDS011;68459;50.836;19.138;2023-06-19T08:40:56;6.60;;;4.03;;
74974;SDS011;68459;50.836;19.138;2023-06-19T08:44:00;5.45;;;4.28;;
74974;SDS011;68459;50.836;19.138;2023-06-19T08:47:05;7.10;;;4.15;;
74974;SDS011;68459;50.836;19.138;2023-06-19T08:50:12;6.60;;;4.20;;
74974;SDS011;68459;50.836;19.138;2023-06-19T08:53:16;5.53;;;4.45;;
74974;SDS011;68459;50.836;19.138;2023-06-19T08:56:20;7.18;;;4.25;;
74974;SDS011;68459;50.836;19.138;2023-06-19T08:59:24;8.07;;;4.25;;
74974;SDS011;68459;50.836;19.138;2023-06-19T09:02:36;5.15;;;4.10;;
74974;SDS011;68459;50.836;19.138;2023-06-19T09:05:44;5.70;;;4.27;;
74974;SDS011;68459;50.836;19.138;2023-06-19T09:08:57;6.05;;;4.40;;
74974;SDS011;68459;50.836;19.138;2023-06-19T09:12:03;7.78;;;5.50;;
74974;SDS011;68459;50.836;19.138;2023-06-19T09:15:13;6.22;;;4.50;;
74974;SDS011;68459;50.836;19.138;2023-06-19T09:18:18;4.97;;;3.95;;
74974;SDS011;68459;50.836;19.138;2023-06-19T09:21:23;5.07;;;3.87;;
74974;SDS011;68459;50.836;19.138;2023-06-19T09:24:33;5.43;;;4.13;;
74974;SDS011;68459;50.836;19.138;2023-06-19T09:27:39;7.68;;;4.45;;
74974;SDS011;68459;50.836;19.138;2023-06-19T09:30:50;5.72;;;4.05;;
74974;SDS011;68459;50.836;19.138;2023-06-19T09:33:59;4.88;;;3.95;;
74974;SDS011;68459;50.836;19.138;2023-06-19T09:37:05;5.37;;;4.10;;
74974;SDS011;68459;50.836;19.138;2023-06-19T09:40:11;4.40;;;3.92;;
74974;SDS011;68459;50.836;19.138;2023-06-19T09:43:15;5.00;;;3.97;;
74974;SDS011;68459;50.836;19.138;2023-06-19T09:46:26;4.85;;;4.10;;
74974;SDS011;68459;50.836;19.138;2023-06-19T09:49:33;7.28;;;3.85;;
74974;SDS011;68459;50.836;19.138;2023-06-19T09:52:40;5.43;;;4.00;;
74974;SDS011;68459;50.836;19.138;2023-06-19T09:55:45;5.78;;;3.70;;
74974;SDS011;68459;50.836;19.138;2023-06-19T09:58:52;5.32;;;4.60;;
74974;SDS011;68459;50.836;19.138;2023-06-19T10:02:01;12.40;;;8.88;;
74974;SDS011;68459;50.836;19.138;2023-06-19T10:05:08;6.97;;;4.40;;
74974;SDS011;68459;50.836;19.138;2023-06-19T10:08:26;5.63;;;4.10;;
74974;SDS011;68459;50.836;19.138;2023-06-19T10:11:43;5.70;;;4.05;;
74974;SDS011;68459;50.836;19.138;2023-06-19T10:14:49;4.88;;;3.70;;
74974;SDS011;68459;50.836;19.138;2023-06-19T10:17:53;4.78;;;3.58;;
74974;SDS011;68459;50.836;19.138;2023-06-19T10:21:03;5.03;;;3.90;;
74974;SDS011;68459;50.836;19.138;2023-06-19T10:24:13;4.87;;;4.00;;
74974;SDS011;68459;50.836;19.138;2023-06-19T10:27:20;5.40;;;3.80;;
74974;SDS011;68459;50.836;19.138;2023-06-19T10:30:25;5.35;;;4.10;;
74974;SDS011;68459;50.836;19.138;2023-06-19T10:33:30;4.40;;;3.75;;
74974;SDS011;68459;50.836;19.138;2023-06-19T10:36:36;4.20;;;3.67;;
74974;SDS011;68459;50.836;19.138;2023-06-19T10:39:41;4.90;;;3.93;;
74974;SDS011;68459;50.836;19.138;2023-06-19T10:42:46;5.22;;;3.80;;
74974;SDS011;68459;50.836;19.138;2023-06-19T10:45:49;5.75;;;4.15;;
74974;SDS011;68459;50.836;19.138;2023-06-19T10:48:54;5.10;;;3.88;;
74974;SDS011;68459;50.836;19.138;2023-06-19T10:52:03;5.00;;;3.70;;
74974;SDS011;68459;50.836;19.138;2023-06-19T10:55:10;6.30;;;3.87;;
74974;SDS011;68459;50.836;19.138;2023-06-19T10:58:15;5.35;;;3.90;;
74974;SDS011;68459;50.836;19.138;2023-06-19T11:01:19;3.88;;;3.47;;
74974;SDS011;68459;50.836;19.138;2023-06-19T11:04:23;6.93;;;3.67;;
74974;SDS011;68459;50.836;19.138;2023-06-19T11:07:27;5.55;;;3.88;;
74974;SDS011;68459;50.836;19.138;2023-06-19T11:10:32;4.70;;;3.67;;
74974;SDS011;68459;50.836;19.138;2023-06-19T11:13:36;4.13;;;3.30;;
74974;SDS011;68459;50.836;19.138;2023-06-19T11:16:41;4.43;;;3.30;;
74974;SDS011;68459;50.836;19.138;2023-06-19T11:19:48;4.22;;;3.55;;
74974;SDS011;68459;50.836;19.138;2023-06-19T11:22:56;6.22;;;3.78;;
74974;SDS011;68459;50.836;19.138;2023-06-19T11:26:03;4.37;;;3.53;;
74974;SDS011;68459;50.836;19.138;2023-06-19T11:29:17;5.80;;;3.40;;
74974;SDS011;68459;50.836;19.138;2023-06-19T11:32:23;3.85;;;3.13;;
74974;SDS011;68459;50.836;19.138;2023-06-19T11:35:32;4.60;;;3.40;;
74974;SDS011;68459;50.836;19.138;2023-06-19T11:38:38;5.03;;;3.35;;
74974;SDS011;68459;50.836;19.138;2023-06-19T11:41:44;5.93;;;3.50;;
74974;SDS011;68459;50.836;19.138;2023-06-19T11:44:52;4.67;;;3.10;;
74974;SDS011;68459;50.836;19.138;2023-06-19T11:47:57;4.28;;;2.83;;
74974;SDS011;68459;50.836;19.138;2023-06-19T11:51:01;5.18;;;3.50;;
74974;SDS011;68459;50.836;19.138;2023-06-19T11:54:07;5.55;;;3.50;;
74974;SDS011;68459;50.836;19.138;2023-06-19T11:57:14;5.47;;;3.23;;
74974;SDS011;68459;50.836;19.138;2023-06-19T12:00:17;5.37;;;3.40;;
74974;SDS011;68459;50.836;19.138;2023-06-19T12:03:22;3.35;;;2.90;;
74974;SDS011;68459;50.836;19.138;2023-06-19T12:06:26;3.58;;;2.90;;
74974;SDS011;68459;50.836;19.138;2023-06-19T12:09:30;4.25;;;3.03;;
74974;SDS011;68459;50.836;19.138;2023-06-19T12:12:35;4.93;;;3.60;;
74974;SDS011;68459;50.836;19.138;2023-06-19T12:15:40;5.20;;;3.40;;
74974;SDS011;68459;50.836;19.138;2023-06-19T12:18:44;3.15;;;2.85;;
74974;SDS011;68459;50.836;19.138;2023-06-19T12:21:48;5.75;;;2.88;;
74974;SDS011;68459;50.836;19.138;2023-06-19T12:24:51;4.65;;;3.28;;
74974;SDS011;68459;50.836;19.138;2023-06-19T12:27:56;5.30;;;3.40;;
74974;SDS011;68459;50.836;19.138;2023-06-19T12:31:00;3.93;;;2.80;;
74974;SDS011;68459;50.836;19.138;2023-06-19T12:34:06;3.58;;;2.90;;
74974;SDS011;68459;50.836;19.138;2023-06-19T12:37:30;3.70;;;3.03;;
74974;SDS011;68459;50.836;19.138;2023-06-19T12:40:34;3.92;;;3.10;;
74974;SDS011;68459;50.836;19.138;2023-06-19T12:43:41;4.13;;;3.17;;
74974;SDS011;68459;50.836;19.138;2023-06-19T12:46:44;4.40;;;2.90;;
74974;SDS011;68459;50.836;19.138;2023-06-19T12:49:48;3.22;;;2.63;;
74974;SDS011;68459;50.836;19.138;2023-06-19T12:52:52;3.70;;;2.80;;
74974;SDS011;68459;50.836;19.138;2023-06-19T12:55:56;3.70;;;3.00;;
74974;SDS011;68459;50.836;19.138;2023-06-19T12:59:06;3.97;;;3.10;;
74974;SDS011;68459;50.836;19.138;2023-06-19T13:02:10;4.57;;;2.77;;
74974;SDS011;68459;50.836;19.138;2023-06-19T13:05:16;3.67;;;3.00;;
74974;SDS011;68459;50.836;19.138;2023-06-19T13:08:20;5.78;;;3.53;;
74974;SDS011;68459;50.836;19.138;2023-06-19T13:11:24;4.97;;;3.13;;
74974;SDS011;68459;50.836;19.138;2023-06-19T13:14:29;4.00;;;3.17;;
74974;SDS011;68459;50.836;19.138;2023-06-19T13:17:34;6.73;;;2.80;;
74974;SDS011;68459;50.836;19.138;2023-06-19T13:20:37;5.78;;;3.08;;
74974;SDS011;68459;50.836;19.138;2023-06-19T13:23:41;4.95;;;2.70;;
74974;SDS011;68459;50.836;19.138;2023-06-19T13:26:45;4.63;;;3.30;;
74974;SDS011;68459;50.836;19.138;2023-06-19T13:29:50;3.43;;;2.80;;
74974;SDS011;68459;50.836;19.138;2023-06-19T13:32:54;3.30;;;2.63;;
74974;SDS011;68459;50.836;19.138;2023-06-19T13:35:58;3.58;;;2.63;;
74974;SDS011;68459;50.836;19.138;2023-06-19T13:39:01;3.53;;;2.72;;
74974;SDS011;68459;50.836;19.138;2023-06-19T13:42:06;3.22;;;2.70;;
74974;SDS011;68459;50.836;19.138;2023-06-19T13:45:12;3.40;;;2.63;;
74974;SDS011;68459;50.836;19.138;2023-06-19T13:48:16;3.77;;;2.63;;
74974;SDS011;68459;50.836;19.138;2023-06-19T13:51:20;4.53;;;3.03;;
74974;SDS011;68459;50.836;19.138;2023-06-19T13:54:25;4.07;;;2.90;;
74974;SDS011;68459;50.836;19.138;2023-06-19T13:57:29;3.35;;;2.78;;
74974;SDS011;68459;50.836;19.138;2023-06-19T14:00:34;3.60;;;2.63;;
74974;SDS011;68459;50.836;19.138;2023-06-19T14:03:38;4.67;;;2.80;;
74974;SDS011;68459;50.836;19.138;2023-06-19T14:06:42;3.85;;;2.72;;
74974;SDS011;68459;50.836;19.138;2023-06-19T14:09:46;4.22;;;2.85;;
74974;SDS011;68459;50.836;19.138;2023-06-19T14:12:50;3.78;;;2.83;;
74974;SDS011;68459;50.836;19.138;2023-06-19T14:15:55;3.33;;;2.80;;
74974;SDS011;68459;50.836;19.138;2023-06-19T14:18:59;3.20;;;2.60;;
74974;SDS011;68459;50.836;19.138;2023-06-19T14:22:03;3.10;;;2.60;;
74974;SDS011;68459;50.836;19.138;2023-06-19T14:25:08;5.03;;;2.60;;
74974;SDS011;68459;50.836;19.138;2023-06-19T14:28:12;4.97;;;2.33;;
74974;SDS011;68459;50.836;19.138;2023-06-19T14:31:18;3.37;;;3.00;;
74974;SDS011;68459;50.836;19.138;2023-06-19T14:34:22;3.53;;;3.00;;
74974;SDS011;68459;50.836;19.138;2023-06-19T14:37:26;3.85;;;3.08;;
74974;SDS011;68459;50.836;19.138;2023-06-19T14:40:29;3.10;;;2.80;;
74974;SDS011;68459;50.836;19.138;2023-06-19T14:43:33;4.10;;;2.75;;
74974;SDS011;68459;50.836;19.138;2023-06-19T14:46:38;3.63;;;2.90;;
74974;SDS011;68459;50.836;19.138;2023-06-19T14:49:43;3.20;;;2.77;;
74974;SDS011;68459;50.836;19.138;2023-06-19T14:52:47;4.22;;;2.90;;
74974;SDS011;68459;50.836;19.138;2023-06-19T14:55:51;3.70;;;2.88;;
74974;SDS011;68459;50.836;19.138;2023-06-19T14:58:54;3.55;;;2.90;;
74974;SDS011;68459;50.836;19.138;2023-06-19T15:02:00;3.50;;;2.80;;
74974;SDS011;68459;50.836;19.138;2023-06-19T15:05:05;5.13;;;2.90;;
74974;SDS011;68459;50.836;19.138;2023-06-19T15:08:10;3.40;;;3.10;;
74974;SDS011;68459;50.836;19.138;2023-06-19T15:11:13;5.05;;;3.22;;
74974;SDS011;68459;50.836;19.138;2023-06-19T15:14:17;3.58;;;3.00;;
74974;SDS011;68459;50.836;19.138;2023-06-19T15:17:23;3.20;;;2.90;;
74974;SDS011;68459;50.836;19.138;2023-06-19T15:20:27;3.37;;;2.83;;
74974;SDS011;68459;50.836;19.138;2023-06-19T15:23:31;3.25;;;2.95;;
74974;SDS011;68459;50.836;19.138;2023-06-19T15:26:35;3.95;;;3.03;;
74974;SDS011;68459;50.836;19.138;2023-06-19T15:29:41;3.67;;;3.00;;
74974;SDS011;68459;50.836;19.138;2023-06-19T15:32:46;3.80;;;3.03;;
74974;SDS011;68459;50.836;19.138;2023-06-19T15:35:50;3.27;;;2.83;;
74974;SDS011;68459;50.836;19.138;2023-06-19T15:38:54;3.40;;;3.10;;
74974;SDS011;68459;50.836;19.138;2023-06-19T15:41:58;3.95;;;2.78;;
74974;SDS011;68459;50.836;19.138;2023-06-19T15:45:03;3.53;;;2.80;;
74974;SDS011;68459;50.836;19.138;2023-06-19T15:48:09;3.23;;;2.90;;
74974;SDS011;68459;50.836;19.138;2023-06-19T15:51:13;3.00;;;2.70;;
74974;SDS011;68459;50.836;19.138;2023-06-19T15:54:17;3.67;;;2.90;;
74974;SDS011;68459;50.836;19.138;2023-06-19T15:57:21;7.53;;;2.58;;
74974;SDS011;68459;50.836;19.138;2023-06-19T16:00:24;3.28;;;2.90;;
74974;SDS011;68459;50.836;19.138;2023-06-19T16:03:30;4.53;;;3.00;;
74974;SDS011;68459;50.836;19.138;2023-06-19T16:06:35;4.13;;;3.17;;
74974;SDS011;68459;50.836;19.138;2023-06-19T16:09:39;4.10;;;3.17;;
74974;SDS011;68459;50.836;19.138;2023-06-19T16:12:55;3.78;;;2.95;;
74974;SDS011;68459;50.836;19.138;2023-06-19T16:15:59;3.40;;;3.10;;
74974;SDS011;68459;50.836;19.138;2023-06-19T16:19:04;4.33;;;3.10;;
74974;SDS011;68459;50.836;19.138;2023-06-19T16:22:08;4.00;;;3.27;;
74974;SDS011;68459;50.836;19.138;2023-06-19T16:25:13;4.05;;;3.28;;
74974;SDS011;68459;50.836;19.138;2023-06-19T16:28:17;3.90;;;3.50;;
74974;SDS011;68459;50.836;19.138;2023-06-19T16:31:20;4.20;;;2.85;;
74974;SDS011;68459;50.836;19.138;2023-06-19T16:34:26;6.03;;;3.10;;
74974;SDS011;68459;50.836;19.138;2023-06-19T16:37:29;4.50;;;3.40;;
74974;SDS011;68459;50.836;19.138;2023-06-19T16:40:33;4.20;;;3.45;;
74974;SDS011;68459;50.836;19.138;2023-06-19T16:43:37;5.95;;;3.30;;
74974;SDS011;68459;50.836;19.138;2023-06-19T16:46:41;3.88;;;3.33;;
74974;SDS011;68459;50.836;19.138;2023-06-19T16:49:46;4.37;;;3.43;;
74974;SDS011;68459;50.836;19.138;2023-06-19T16:52:50;4.80;;;3.10;;
74974;SDS011;68459;50.836;19.138;2023-06-19T16:55:54;4.00;;;3.22;;
74974;SDS011;68459;50.836;19.138;2023-06-19T16:58:59;4.57;;;3.33;;
74974;SDS011;68459;50.836;19.138;2023-06-19T17:02:07;3.75;;;3.33;;
74974;SDS011;68459;50.836;19.138;2023-06-19T17:05:13;4.90;;;3.40;;
74974;SDS011;68459;50.836;19.138;2023-06-19T17:08:17;5.17;;;3.50;;
74974;SDS011;68459;50.836;19.138;2023-06-19T17:11:21;5.50;;;3.50;;
74974;SDS011;68459;50.836;19.138;2023-06-19T17:14:28;3.90;;;3.50;;
74974;SDS011;68459;50.836;19.138;2023-06-19T17:17:32;4.55;;;3.88;;
74974;SDS011;68459;50.836;19.138;2023-06-19T17:20:39;6.07;;;3.80;;
74974;SDS011;68459;50.836;19.138;2023-06-19T17:23:42;5.83;;;3.80;;
74974;SDS011;68459;50.836;19.138;2023-06-19T17:26:47;5.78;;;4.20;;
74974;SDS011;68459;50.836;19.138;2023-06-19T17:29:53;6.55;;;4.25;;
74974;SDS011;68459;50.836;19.138;2023-06-19T17:32:57;7.13;;;4.43;;
74974;SDS011;68459;50.836;19.138;2023-06-19T17:36:02;7.67;;;4.57;;
74974;SDS011;68459;50.836;19.138;2023-06-19T17:39:09;7.20;;;5.17;;
74974;SDS011;68459;50.836;19.138;2023-06-19T17:42:13;6.65;;;4.80;;
74974;SDS011;68459;50.836;19.138;2023-06-19T17:45:16;7.68;;;4.88;;
74974;SDS011;68459;50.836;19.138;2023-06-19T17:48:21;6.32;;;4.82;;
74974;SDS011;68459;50.836;19.138;2023-06-19T17:51:26;8.13;;;4.87;;
74974;SDS011;68459;50.836;19.138;2023-06-19T17:54:29;9.53;;;4.80;;
74974;SDS011;68459;50.836;19.138;2023-06-19T17:57:33;7.18;;;4.65;;
74974;SDS011;68459;50.836;19.138;2023-06-19T18:00:37;7.35;;;4.53;;
74974;SDS011;68459;50.836;19.138;2023-06-19T18:03:41;6.32;;;4.25;;
74974;SDS011;68459;50.836;19.138;2023-06-19T18:06:46;8.90;;;4.63;;
74974;SDS011;68459;50.836;19.138;2023-06-19T18:09:50;7.37;;;4.70;;
74974;SDS011;68459;50.836;19.138;2023-06-19T18:12:57;8.32;;;4.70;;
74974;SDS011;68459;50.836;19.138;2023-06-19T18:16:00;7.65;;;4.93;;